Capt. James Anderson — WDC3584 — position and weather

sailwx.info

Track history (hours):
 
Tides and Currents Weather Stations Pressure Air Temp Water Temp Dewpoint Dewpoint Depression Visibility Wind Speed Wind Dir Waves Ship Positions

Capt. James Anderson

Owner: AEP River Operations LLC, Chesterfield, MO. More information available from US FCC via Universal Licensing System and Coast Guard Vessel Documentation Center.

Last reported at 2015-Jul-11 00:06 UTC. Time now 2015-Jul-29 09:27 UTC.
Position N 38°56' W 084°52'.
Warning: this ship's position is 18 days out of date.

Length 46 m; draft 3.5 m.

Type: Towing. MMSI: 367010580.

Date/timePositionNaut miles runAvg speedWind from/ knotsBaromVisibWave heightAir tempDewpointWater temp
2015-Jul-11 00:06N 38°56' W 084°52'9 5.5
2015-Jul-10 22:30N 39°05' W 084°52'7 7.0
2015-Jul-10 21:33N 39°09' W 084°45'7 6.7
2015-Jul-10 20:33N 39°05' W 084°38'7 6.6
2015-Jul-10 19:33N 39°06' W 084°30'2 2.2
2015-Jul-10 18:33N 39°07' W 084°27'5 4.8
2015-Jul-10 17:33N 39°03' W 084°25'6 6.3
2015-Jul-10 16:33N 38°59' W 084°18'7 6.8
2015-Jul-10 15:33N 38°53' W 084°14'6 5.9
2015-Jul-10 14:31N 38°48' W 084°11'3 3.0
2015-Jul-10 13:33N 38°47' W 084°07'7 6.3
2015-Jul-10 12:25N 38°47' W 083°58'6 6.5
2015-Jul-10 11:32N 38°45' W 083°51'  
2015-Jul-08 01:23N 38°45' W 083°51'9 4.4
2015-Jul-07 23:19N 38°46' W 084°03'4 5.3
2015-Jul-07 22:33N 38°47' W 084°08'3 2.4
2015-Jul-07 21:27N 38°48' W 084°11'3 3.7
2015-Jul-07 20:32N 38°50' W 084°14'0 0.4
2015-Jul-07 19:32N 38°51' W 084°14'0 0.0
2015-Jul-07 18:21N 38°51' W 084°14'0 0.1
2015-Jul-07 17:33N 38°51' W 084°14'0 0.0
2015-Jul-07 16:32N 38°51' W 084°14'0 0.1
2015-Jul-07 15:32N 38°51' W 084°14'0 0.4
2015-Jul-07 14:31N 38°51' W 084°14'4 4.3
2015-Jul-07 13:33N 38°55' W 084°15'4 4.5
2015-Jul-07 12:33N 38°59' W 084°18'4 4.2
2015-Jul-07 11:34N 39°02' W 084°21'4 4.1
2015-Jul-07 10:32N 39°04' W 084°26'3 3.5
2015-Jul-07 09:33N 39°07' W 084°29'3 3.3
2015-Jul-07 08:33N 39°06' W 084°33'4 3.9
2015-Jul-07 07:33N 39°04' W 084°37'4 4.2
2015-Jul-07 06:32N 39°07' W 084°42'4 3.6
2015-Jul-07 05:33N 39°08' W 084°46'4 4.2
2015-Jul-07 04:32N 39°06' W 084°51'4 3.7
2015-Jul-07 03:33N 39°03' W 084°53'6 4.3
2015-Jul-07 02:14N 38°57' W 084°50'4 3.1
2015-Jul-07 01:06N 38°54' W 084°50'  
Track history (hours):
 
Tides and Currents Weather Stations Pressure Air Temp Water Temp Dewpoint Dewpoint Depression Visibility Wind Speed Wind Dir Waves Ship Positions

Capt. James Anderson

Owner: AEP River Operations LLC, Chesterfield, MO. More information available from US FCC via Universal Licensing System and Coast Guard Vessel Documentation Center.

Last reported at 2015-Jul-11 00:06 UTC. Time now 2015-Jul-29 09:27 UTC.
Position N 38°56' W 084°52'.
Warning: this ship's position is 18 days out of date.

Length 46 m; draft 3.5 m.

Type: Towing. MMSI: 367010580.

Date/timePositionNaut miles runAvg speedWind from/ knotsBaromVisibWave heightAir tempDewpointWater temp
2015-Jul-11 00:06N 38°56' W 084°52'9 5.5
2015-Jul-10 22:30N 39°05' W 084°52'7 7.0
2015-Jul-10 21:33N 39°09' W 084°45'7 6.7
2015-Jul-10 20:33N 39°05' W 084°38'7 6.6
2015-Jul-10 19:33N 39°06' W 084°30'2 2.2
2015-Jul-10 18:33N 39°07' W 084°27'5 4.8
2015-Jul-10 17:33N 39°03' W 084°25'6 6.3
2015-Jul-10 16:33N 38°59' W 084°18'7 6.8
2015-Jul-10 15:33N 38°53' W 084°14'6 5.9
2015-Jul-10 14:31N 38°48' W 084°11'3 3.0
2015-Jul-10 13:33N 38°47' W 084°07'7 6.3
2015-Jul-10 12:25N 38°47' W 083°58'6 6.5
2015-Jul-10 11:32N 38°45' W 083°51'  
2015-Jul-08 01:23N 38°45' W 083°51'9 4.4
2015-Jul-07 23:19N 38°46' W 084°03'4 5.3
2015-Jul-07 22:33N 38°47' W 084°08'3 2.4
2015-Jul-07 21:27N 38°48' W 084°11'3 3.7
2015-Jul-07 20:32N 38°50' W 084°14'0 0.4
2015-Jul-07 19:32N 38°51' W 084°14'0 0.0
2015-Jul-07 18:21N 38°51' W 084°14'0 0.1
2015-Jul-07 17:33N 38°51' W 084°14'0 0.0
2015-Jul-07 16:32N 38°51' W 084°14'0 0.1
2015-Jul-07 15:32N 38°51' W 084°14'0 0.4
2015-Jul-07 14:31N 38°51' W 084°14'4 4.3
2015-Jul-07 13:33N 38°55' W 084°15'4 4.5
2015-Jul-07 12:33N 38°59' W 084°18'4 4.2
2015-Jul-07 11:34N 39°02' W 084°21'4 4.1
2015-Jul-07 10:32N 39°04' W 084°26'3 3.5
2015-Jul-07 09:33N 39°07' W 084°29'3 3.3
2015-Jul-07 08:33N 39°06' W 084°33'4 3.9
2015-Jul-07 07:33N 39°04' W 084°37'4 4.2
2015-Jul-07 06:32N 39°07' W 084°42'4 3.6
2015-Jul-07 05:33N 39°08' W 084°46'4 4.2
2015-Jul-07 04:32N 39°06' W 084°51'4 3.7
2015-Jul-07 03:33N 39°03' W 084°53'6 4.3
2015-Jul-07 02:14N 38°57' W 084°50'4 3.1
2015-Jul-07 01:06N 38°54' W 084°50'  

Dump ship's entire track history